sensor_id;sensor_type;location;lat;lon;timestamp;P1;durP1;ratioP1;P2;durP2;ratioP2
13347;SDS011;6743;49.934;9.138;2023-04-08T00:01:29;3.27;;;2.63;;
13347;SDS011;6743;49.934;9.138;2023-04-08T00:03:55;3.10;;;2.20;;
13347;SDS011;6743;49.934;9.138;2023-04-08T00:06:21;2.67;;;2.30;;
13347;SDS011;6743;49.934;9.138;2023-04-08T00:08:47;2.47;;;2.13;;
13347;SDS011;6743;49.934;9.138;2023-04-08T00:11:13;3.23;;;2.27;;
13347;SDS011;6743;49.934;9.138;2023-04-08T00:13:39;2.60;;;2.40;;
13347;SDS011;6743;49.934;9.138;2023-04-08T00:16:05;2.77;;;2.53;;
13347;SDS011;6743;49.934;9.138;2023-04-08T00:18:32;3.23;;;2.23;;
13347;SDS011;6743;49.934;9.138;2023-04-08T00:20:57;2.90;;;2.60;;
13347;SDS011;6743;49.934;9.138;2023-04-08T00:23:24;3.27;;;2.60;;
13347;SDS011;6743;49.934;9.138;2023-04-08T00:25:50;2.80;;;2.53;;
13347;SDS011;6743;49.934;9.138;2023-04-08T00:28:16;3.07;;;2.27;;
13347;SDS011;6743;49.934;9.138;2023-04-08T00:30:43;2.53;;;2.27;;
13347;SDS011;6743;49.934;9.138;2023-04-08T00:33:09;2.27;;;2.17;;
13347;SDS011;6743;49.934;9.138;2023-04-08T00:35:35;2.20;;;2.00;;
13347;SDS011;6743;49.934;9.138;2023-04-08T00:38:00;2.23;;;2.03;;
13347;SDS011;6743;49.934;9.138;2023-04-08T00:40:27;2.47;;;2.00;;
13347;SDS011;6743;49.934;9.138;2023-04-08T00:42:53;3.33;;;2.37;;
13347;SDS011;6743;49.934;9.138;2023-04-08T00:45:21;2.80;;;2.30;;
13347;SDS011;6743;49.934;9.138;2023-04-08T00:47:48;3.20;;;2.53;;
13347;SDS011;6743;49.934;9.138;2023-04-08T00:50:16;3.43;;;2.30;;
13347;SDS011;6743;49.934;9.138;2023-04-08T00:52:43;3.60;;;2.57;;
13347;SDS011;6743;49.934;9.138;2023-04-08T00:55:09;2.60;;;2.40;;
13347;SDS011;6743;49.934;9.138;2023-04-08T00:57:35;2.33;;;2.13;;
13347;SDS011;6743;49.934;9.138;2023-04-08T01:00:01;2.83;;;2.40;;
13347;SDS011;6743;49.934;9.138;2023-04-08T01:02:30;2.80;;;2.50;;
13347;SDS011;6743;49.934;9.138;2023-04-08T01:05:05;3.90;;;2.50;;
13347;SDS011;6743;49.934;9.138;2023-04-08T01:07:35;2.27;;;2.07;;
13347;SDS011;6743;49.934;9.138;2023-04-08T01:10:06;2.97;;;2.43;;
13347;SDS011;6743;49.934;9.138;2023-04-08T01:12:39;2.00;;;1.90;;
13347;SDS011;6743;49.934;9.138;2023-04-08T01:15:10;2.83;;;2.20;;
13347;SDS011;6743;49.934;9.138;2023-04-08T01:17:37;3.00;;;2.23;;
13347;SDS011;6743;49.934;9.138;2023-04-08T01:20:04;3.90;;;2.90;;
13347;SDS011;6743;49.934;9.138;2023-04-08T01:22:36;2.30;;;2.17;;
13347;SDS011;6743;49.934;9.138;2023-04-08T01:25:09;3.03;;;1.97;;
13347;SDS011;6743;49.934;9.138;2023-04-08T01:27:45;2.60;;;2.40;;
13347;SDS011;6743;49.934;9.138;2023-04-08T01:30:13;2.40;;;2.17;;
13347;SDS011;6743;49.934;9.138;2023-04-08T01:32:40;2.50;;;2.30;;
13347;SDS011;6743;49.934;9.138;2023-04-08T01:35:08;3.00;;;2.03;;
13347;SDS011;6743;49.934;9.138;2023-04-08T01:37:34;1.97;;;1.63;;
13347;SDS011;6743;49.934;9.138;2023-04-08T01:40:03;2.37;;;1.93;;
13347;SDS011;6743;49.934;9.138;2023-04-08T01:42:32;2.10;;;2.00;;
13347;SDS011;6743;49.934;9.138;2023-04-08T01:45:00;1.97;;;1.87;;
13347;SDS011;6743;49.934;9.138;2023-04-08T01:47:29;1.93;;;1.80;;
13347;SDS011;6743;49.934;9.138;2023-04-08T01:49:56;1.80;;;1.70;;
13347;SDS011;6743;49.934;9.138;2023-04-08T01:52:24;1.83;;;1.73;;
13347;SDS011;6743;49.934;9.138;2023-04-08T01:54:53;3.13;;;2.47;;
13347;SDS011;6743;49.934;9.138;2023-04-08T01:57:21;1.73;;;1.63;;
13347;SDS011;6743;49.934;9.138;2023-04-08T01:59:49;1.83;;;1.73;;
13347;SDS011;6743;49.934;9.138;2023-04-08T02:02:17;2.97;;;1.67;;
13347;SDS011;6743;49.934;9.138;2023-04-08T02:04:45;2.10;;;1.87;;
13347;SDS011;6743;49.934;9.138;2023-04-08T02:07:11;1.60;;;1.50;;
13347;SDS011;6743;49.934;9.138;2023-04-08T02:09:38;1.70;;;1.60;;
13347;SDS011;6743;49.934;9.138;2023-04-08T02:12:04;1.57;;;1.47;;
13347;SDS011;6743;49.934;9.138;2023-04-08T02:14:31;3.03;;;1.67;;
13347;SDS011;6743;49.934;9.138;2023-04-08T02:16:58;2.77;;;2.13;;
13347;SDS011;6743;49.934;9.138;2023-04-08T02:19:31;1.60;;;1.50;;
13347;SDS011;6743;49.934;9.138;2023-04-08T02:22:04;1.60;;;1.40;;
13347;SDS011;6743;49.934;9.138;2023-04-08T02:24:36;2.47;;;2.20;;
13347;SDS011;6743;49.934;9.138;2023-04-08T02:27:04;1.60;;;1.50;;
13347;SDS011;6743;49.934;9.138;2023-04-08T02:29:33;2.13;;;1.90;;
13347;SDS011;6743;49.934;9.138;2023-04-08T02:32:01;2.23;;;1.97;;
13347;SDS011;6743;49.934;9.138;2023-04-08T02:34:29;1.90;;;1.60;;
13347;SDS011;6743;49.934;9.138;2023-04-08T02:36:58;2.20;;;2.00;;
13347;SDS011;6743;49.934;9.138;2023-04-08T02:39:29;1.53;;;1.43;;
13347;SDS011;6743;49.934;9.138;2023-04-08T02:41:55;2.17;;;1.70;;
13347;SDS011;6743;49.934;9.138;2023-04-08T02:44:21;1.47;;;1.37;;
13347;SDS011;6743;49.934;9.138;2023-04-08T02:46:47;2.17;;;1.63;;
13347;SDS011;6743;49.934;9.138;2023-04-08T02:49:13;2.50;;;2.30;;
13347;SDS011;6743;49.934;9.138;2023-04-08T02:51:42;3.67;;;2.53;;
13347;SDS011;6743;49.934;9.138;2023-04-08T02:54:08;4.97;;;2.77;;
13347;SDS011;6743;49.934;9.138;2023-04-08T02:56:34;3.50;;;2.57;;
13347;SDS011;6743;49.934;9.138;2023-04-08T02:59:00;2.13;;;2.03;;
13347;SDS011;6743;49.934;9.138;2023-04-08T03:01:26;3.20;;;2.23;;
13347;SDS011;6743;49.934;9.138;2023-04-08T03:03:52;3.03;;;2.73;;
13347;SDS011;6743;49.934;9.138;2023-04-08T03:06:18;2.93;;;2.60;;
13347;SDS011;6743;49.934;9.138;2023-04-08T03:08:44;2.20;;;2.00;;
13347;SDS011;6743;49.934;9.138;2023-04-08T03:11:10;2.23;;;2.03;;
13347;SDS011;6743;49.934;9.138;2023-04-08T03:13:36;4.40;;;2.97;;
13347;SDS011;6743;49.934;9.138;2023-04-08T03:16:02;3.90;;;2.77;;
13347;SDS011;6743;49.934;9.138;2023-04-08T03:18:29;4.93;;;3.80;;
13347;SDS011;6743;49.934;9.138;2023-04-08T03:20:55;3.60;;;2.33;;
13347;SDS011;6743;49.934;9.138;2023-04-08T03:23:21;4.17;;;3.03;;
13347;SDS011;6743;49.934;9.138;2023-04-08T03:25:47;4.67;;;3.63;;
13347;SDS011;6743;49.934;9.138;2023-04-08T03:28:13;3.87;;;3.20;;
13347;SDS011;6743;49.934;9.138;2023-04-08T03:30:39;3.57;;;2.80;;
13347;SDS011;6743;49.934;9.138;2023-04-08T03:33:05;2.67;;;2.47;;
13347;SDS011;6743;49.934;9.138;2023-04-08T03:35:32;4.20;;;3.20;;
13347;SDS011;6743;49.934;9.138;2023-04-08T03:37:58;2.90;;;2.70;;
13347;SDS011;6743;49.934;9.138;2023-04-08T03:40:24;3.47;;;3.07;;
13347;SDS011;6743;49.934;9.138;2023-04-08T03:42:51;5.40;;;3.67;;
13347;SDS011;6743;49.934;9.138;2023-04-08T03:45:17;6.97;;;3.43;;
13347;SDS011;6743;49.934;9.138;2023-04-08T03:47:43;3.87;;;3.17;;
13347;SDS011;6743;49.934;9.138;2023-04-08T03:50:09;4.70;;;3.43;;
13347;SDS011;6743;49.934;9.138;2023-04-08T03:52:35;3.23;;;2.70;;
13347;SDS011;6743;49.934;9.138;2023-04-08T03:55:01;4.53;;;2.90;;
13347;SDS011;6743;49.934;9.138;2023-04-08T03:57:28;2.60;;;2.40;;
13347;SDS011;6743;49.934;9.138;2023-04-08T03:59:54;3.43;;;2.93;;
13347;SDS011;6743;49.934;9.138;2023-04-08T04:02:20;4.70;;;3.17;;
13347;SDS011;6743;49.934;9.138;2023-04-08T04:04:46;4.30;;;3.27;;
13347;SDS011;6743;49.934;9.138;2023-04-08T04:07:12;4.37;;;3.63;;
13347;SDS011;6743;49.934;9.138;2023-04-08T04:09:38;3.70;;;2.80;;
13347;SDS011;6743;49.934;9.138;2023-04-08T04:12:04;3.30;;;3.00;;
13347;SDS011;6743;49.934;9.138;2023-04-08T04:14:30;4.07;;;3.20;;
13347;SDS011;6743;49.934;9.138;2023-04-08T04:16:57;3.00;;;2.43;;
13347;SDS011;6743;49.934;9.138;2023-04-08T04:19:23;5.63;;;3.03;;
13347;SDS011;6743;49.934;9.138;2023-04-08T04:21:49;3.43;;;2.87;;
13347;SDS011;6743;49.934;9.138;2023-04-08T04:24:15;4.57;;;3.10;;
13347;SDS011;6743;49.934;9.138;2023-04-08T04:26:41;3.23;;;2.70;;
13347;SDS011;6743;49.934;9.138;2023-04-08T04:29:07;4.20;;;3.23;;
13347;SDS011;6743;49.934;9.138;2023-04-08T04:31:33;3.33;;;2.63;;
13347;SDS011;6743;49.934;9.138;2023-04-08T04:33:59;3.93;;;2.73;;
13347;SDS011;6743;49.934;9.138;2023-04-08T04:36:25;3.80;;;2.70;;
13347;SDS011;6743;49.934;9.138;2023-04-08T04:38:51;4.73;;;3.10;;
13347;SDS011;6743;49.934;9.138;2023-04-08T04:41:17;5.57;;;2.73;;
13347;SDS011;6743;49.934;9.138;2023-04-08T04:43:44;2.93;;;2.70;;
13347;SDS011;6743;49.934;9.138;2023-04-08T04:46:10;4.33;;;2.87;;
13347;SDS011;6743;49.934;9.138;2023-04-08T04:48:36;3.80;;;2.57;;
13347;SDS011;6743;49.934;9.138;2023-04-08T04:51:03;4.40;;;2.37;;
13347;SDS011;6743;49.934;9.138;2023-04-08T04:53:29;3.47;;;2.50;;
13347;SDS011;6743;49.934;9.138;2023-04-08T04:55:55;3.90;;;2.67;;
13347;SDS011;6743;49.934;9.138;2023-04-08T04:58:21;4.10;;;3.33;;
13347;SDS011;6743;49.934;9.138;2023-04-08T05:00:47;3.67;;;2.87;;
13347;SDS011;6743;49.934;9.138;2023-04-08T05:03:13;4.20;;;2.53;;
13347;SDS011;6743;49.934;9.138;2023-04-08T05:05:39;4.57;;;3.30;;
13347;SDS011;6743;49.934;9.138;2023-04-08T05:08:06;5.20;;;3.00;;
13347;SDS011;6743;49.934;9.138;2023-04-08T05:10:32;4.00;;;2.47;;
13347;SDS011;6743;49.934;9.138;2023-04-08T05:12:58;2.73;;;2.53;;
13347;SDS011;6743;49.934;9.138;2023-04-08T05:15:24;3.30;;;2.97;;
13347;SDS011;6743;49.934;9.138;2023-04-08T05:17:50;3.20;;;2.20;;
13347;SDS011;6743;49.934;9.138;2023-04-08T05:20:16;3.30;;;3.03;;
13347;SDS011;6743;49.934;9.138;2023-04-08T05:22:42;6.00;;;3.23;;
13347;SDS011;6743;49.934;9.138;2023-04-08T05:25:10;4.30;;;2.93;;
13347;SDS011;6743;49.934;9.138;2023-04-08T05:27:37;3.23;;;2.60;;
13347;SDS011;6743;49.934;9.138;2023-04-08T05:30:05;2.63;;;2.40;;
13347;SDS011;6743;49.934;9.138;2023-04-08T05:32:32;3.77;;;3.30;;
13347;SDS011;6743;49.934;9.138;2023-04-08T05:35:00;3.07;;;2.60;;
13347;SDS011;6743;49.934;9.138;2023-04-08T05:37:27;3.93;;;2.97;;
13347;SDS011;6743;49.934;9.138;2023-04-08T05:39:53;5.13;;;3.00;;
13347;SDS011;6743;49.934;9.138;2023-04-08T05:42:19;4.30;;;2.77;;
13347;SDS011;6743;49.934;9.138;2023-04-08T05:44:45;4.97;;;2.97;;
13347;SDS011;6743;49.934;9.138;2023-04-08T05:47:11;3.93;;;2.97;;
13347;SDS011;6743;49.934;9.138;2023-04-08T05:49:38;3.33;;;2.90;;
13347;SDS011;6743;49.934;9.138;2023-04-08T05:52:04;4.03;;;2.87;;
13347;SDS011;6743;49.934;9.138;2023-04-08T05:54:31;4.87;;;2.70;;
13347;SDS011;6743;49.934;9.138;2023-04-08T05:56:57;5.80;;;3.17;;
13347;SDS011;6743;49.934;9.138;2023-04-08T05:59:24;3.33;;;2.90;;
13347;SDS011;6743;49.934;9.138;2023-04-08T06:01:50;6.60;;;4.17;;
13347;SDS011;6743;49.934;9.138;2023-04-08T06:04:16;3.33;;;3.00;;
13347;SDS011;6743;49.934;9.138;2023-04-08T06:06:42;4.80;;;3.30;;
13347;SDS011;6743;49.934;9.138;2023-04-08T06:09:08;5.97;;;3.10;;
13347;SDS011;6743;49.934;9.138;2023-04-08T06:11:34;5.27;;;3.07;;
13347;SDS011;6743;49.934;9.138;2023-04-08T06:14:00;4.97;;;3.20;;
13347;SDS011;6743;49.934;9.138;2023-04-08T06:16:27;4.17;;;3.20;;
13347;SDS011;6743;49.934;9.138;2023-04-08T06:18:53;4.77;;;3.30;;
13347;SDS011;6743;49.934;9.138;2023-04-08T06:21:19;3.47;;;2.73;;
13347;SDS011;6743;49.934;9.138;2023-04-08T06:23:45;3.67;;;2.60;;
13347;SDS011;6743;49.934;9.138;2023-04-08T06:26:11;4.57;;;3.23;;
13347;SDS011;6743;49.934;9.138;2023-04-08T06:28:37;3.73;;;3.00;;
13347;SDS011;6743;49.934;9.138;2023-04-08T06:31:03;3.43;;;2.40;;
13347;SDS011;6743;49.934;9.138;2023-04-08T06:33:30;3.90;;;3.07;;
13347;SDS011;6743;49.934;9.138;2023-04-08T06:36:00;3.00;;;2.67;;
13347;SDS011;6743;49.934;9.138;2023-04-08T06:38:27;3.47;;;1.80;;
13347;SDS011;6743;49.934;9.138;2023-04-08T06:40:53;3.83;;;2.73;;
13347;SDS011;6743;49.934;9.138;2023-04-08T06:43:20;4.13;;;2.93;;
13347;SDS011;6743;49.934;9.138;2023-04-08T06:45:46;4.73;;;3.73;;
13347;SDS011;6743;49.934;9.138;2023-04-08T06:48:12;4.50;;;3.43;;
13347;SDS011;6743;49.934;9.138;2023-04-08T06:50:39;3.40;;;2.90;;
13347;SDS011;6743;49.934;9.138;2023-04-08T06:53:05;5.80;;;3.80;;
13347;SDS011;6743;49.934;9.138;2023-04-08T06:55:31;4.87;;;2.80;;
13347;SDS011;6743;49.934;9.138;2023-04-08T06:57:57;4.17;;;3.50;;
13347;SDS011;6743;49.934;9.138;2023-04-08T07:00:23;3.10;;;2.43;;
13347;SDS011;6743;49.934;9.138;2023-04-08T07:02:49;3.83;;;3.23;;
13347;SDS011;6743;49.934;9.138;2023-04-08T07:05:15;3.43;;;3.13;;
13347;SDS011;6743;49.934;9.138;2023-04-08T07:07:42;6.23;;;3.47;;
13347;SDS011;6743;49.934;9.138;2023-04-08T07:10:08;3.47;;;3.03;;
13347;SDS011;6743;49.934;9.138;2023-04-08T07:12:35;3.70;;;3.20;;
13347;SDS011;6743;49.934;9.138;2023-04-08T07:15:01;4.87;;;2.90;;
13347;SDS011;6743;49.934;9.138;2023-04-08T07:17:27;3.53;;;3.07;;
13347;SDS011;6743;49.934;9.138;2023-04-08T07:19:53;4.37;;;2.77;;
13347;SDS011;6743;49.934;9.138;2023-04-08T07:22:20;4.77;;;3.23;;
13347;SDS011;6743;49.934;9.138;2023-04-08T07:24:47;4.77;;;3.17;;
13347;SDS011;6743;49.934;9.138;2023-04-08T07:27:13;3.33;;;2.80;;
13347;SDS011;6743;49.934;9.138;2023-04-08T07:29:40;3.37;;;2.40;;
13347;SDS011;6743;49.934;9.138;2023-04-08T07:32:06;6.43;;;3.20;;
13347;SDS011;6743;49.934;9.138;2023-04-08T07:34:33;5.77;;;3.80;;
13347;SDS011;6743;49.934;9.138;2023-04-08T07:36:59;5.63;;;3.53;;
13347;SDS011;6743;49.934;9.138;2023-04-08T07:39:25;5.30;;;3.00;;
13347;SDS011;6743;49.934;9.138;2023-04-08T07:41:52;3.30;;;2.67;;
13347;SDS011;6743;49.934;9.138;2023-04-08T07:44:18;4.53;;;3.70;;
13347;SDS011;6743;49.934;9.138;2023-04-08T07:46:44;4.90;;;3.70;;
13347;SDS011;6743;49.934;9.138;2023-04-08T07:49:13;7.00;;;3.87;;
13347;SDS011;6743;49.934;9.138;2023-04-08T07:51:39;2.80;;;2.43;;
13347;SDS011;6743;49.934;9.138;2023-04-08T07:54:05;5.20;;;3.17;;
13347;SDS011;6743;49.934;9.138;2023-04-08T07:56:31;5.63;;;3.43;;
13347;SDS011;6743;49.934;9.138;2023-04-08T07:58:58;4.27;;;3.30;;
13347;SDS011;6743;49.934;9.138;2023-04-08T08:01:24;4.07;;;2.83;;
13347;SDS011;6743;49.934;9.138;2023-04-08T08:03:51;3.70;;;3.00;;
13347;SDS011;6743;49.934;9.138;2023-04-08T08:06:17;3.90;;;2.97;;
13347;SDS011;6743;49.934;9.138;2023-04-08T08:08:43;5.17;;;3.23;;
13347;SDS011;6743;49.934;9.138;2023-04-08T08:11:09;4.03;;;3.23;;
13347;SDS011;6743;49.934;9.138;2023-04-08T08:13:35;3.93;;;3.07;;
13347;SDS011;6743;49.934;9.138;2023-04-08T08:16:02;3.47;;;2.73;;
13347;SDS011;6743;49.934;9.138;2023-04-08T08:18:28;4.57;;;3.97;;
13347;SDS011;6743;49.934;9.138;2023-04-08T08:20:54;3.77;;;2.70;;
13347;SDS011;6743;49.934;9.138;2023-04-08T08:23:20;4.30;;;3.20;;
13347;SDS011;6743;49.934;9.138;2023-04-08T08:25:46;4.07;;;3.10;;
13347;SDS011;6743;49.934;9.138;2023-04-08T08:28:12;5.83;;;3.27;;
13347;SDS011;6743;49.934;9.138;2023-04-08T08:30:38;4.27;;;2.93;;
13347;SDS011;6743;49.934;9.138;2023-04-08T08:33:05;5.97;;;3.60;;
13347;SDS011;6743;49.934;9.138;2023-04-08T08:35:31;3.63;;;3.17;;
13347;SDS011;6743;49.934;9.138;2023-04-08T08:37:57;3.00;;;2.63;;
13347;SDS011;6743;49.934;9.138;2023-04-08T08:40:23;2.30;;;2.10;;
13347;SDS011;6743;49.934;9.138;2023-04-08T08:42:49;2.53;;;2.33;;
13347;SDS011;6743;49.934;9.138;2023-04-08T08:45:16;2.93;;;2.63;;
13347;SDS011;6743;49.934;9.138;2023-04-08T08:47:43;4.13;;;2.93;;
13347;SDS011;6743;49.934;9.138;2023-04-08T08:50:10;1.93;;;1.80;;
13347;SDS011;6743;49.934;9.138;2023-04-08T08:52:36;2.63;;;2.20;;
13347;SDS011;6743;49.934;9.138;2023-04-08T08:55:02;2.17;;;1.90;;
13347;SDS011;6743;49.934;9.138;2023-04-08T08:57:28;3.13;;;1.67;;
13347;SDS011;6743;49.934;9.138;2023-04-08T08:59:54;2.37;;;1.93;;
13347;SDS011;6743;49.934;9.138;2023-04-08T09:02:24;2.67;;;2.17;;
13347;SDS011;6743;49.934;9.138;2023-04-08T09:05:00;2.17;;;1.97;;
13347;SDS011;6743;49.934;9.138;2023-04-08T09:07:28;2.50;;;2.27;;
13347;SDS011;6743;49.934;9.138;2023-04-08T09:09:56;2.33;;;2.10;;
13347;SDS011;6743;49.934;9.138;2023-04-08T09:12:22;2.77;;;2.27;;
13347;SDS011;6743;49.934;9.138;2023-04-08T09:14:50;2.80;;;2.53;;
13347;SDS011;6743;49.934;9.138;2023-04-08T09:17:30;2.80;;;2.17;;
13347;SDS011;6743;49.934;9.138;2023-04-08T09:20:03;3.40;;;2.73;;
13347;SDS011;6743;49.934;9.138;2023-04-08T09:22:50;2.50;;;2.30;;
13347;SDS011;6743;49.934;9.138;2023-04-08T09:25:24;2.60;;;2.13;;
13347;SDS011;6743;49.934;9.138;2023-04-08T09:27:51;3.47;;;2.90;;
13347;SDS011;6743;49.934;9.138;2023-04-08T09:30:18;2.37;;;2.17;;
13347;SDS011;6743;49.934;9.138;2023-04-08T09:32:46;3.37;;;2.70;;
13347;SDS011;6743;49.934;9.138;2023-04-08T09:35:13;2.30;;;2.10;;
13347;SDS011;6743;49.934;9.138;2023-04-08T09:37:40;3.40;;;2.57;;
13347;SDS011;6743;49.934;9.138;2023-04-08T09:40:08;2.63;;;2.00;;
13347;SDS011;6743;49.934;9.138;2023-04-08T09:42:35;2.90;;;2.13;;
13347;SDS011;6743;49.934;9.138;2023-04-08T09:45:04;2.73;;;1.93;;
13347;SDS011;6743;49.934;9.138;2023-04-08T09:47:32;10.13;;;2.57;;
13347;SDS011;6743;49.934;9.138;2023-04-08T09:50:02;3.27;;;2.70;;
13347;SDS011;6743;49.934;9.138;2023-04-08T09:52:33;2.40;;;2.20;;
13347;SDS011;6743;49.934;9.138;2023-04-08T09:55:07;3.10;;;2.87;;
13347;SDS011;6743;49.934;9.138;2023-04-08T09:57:38;5.20;;;3.00;;
13347;SDS011;6743;49.934;9.138;2023-04-08T10:00:07;2.77;;;2.37;;
13347;SDS011;6743;49.934;9.138;2023-04-08T10:02:39;2.50;;;2.17;;
13347;SDS011;6743;49.934;9.138;2023-04-08T10:05:10;2.73;;;2.30;;
13347;SDS011;6743;49.934;9.138;2023-04-08T10:07:38;3.80;;;2.97;;
13347;SDS011;6743;49.934;9.138;2023-04-08T10:10:05;3.03;;;2.10;;
13347;SDS011;6743;49.934;9.138;2023-04-08T10:12:35;5.37;;;2.93;;
13347;SDS011;6743;49.934;9.138;2023-04-08T10:17:50;2.30;;;2.10;;
13347;SDS011;6743;49.934;9.138;2023-04-08T10:23:09;2.80;;;2.57;;
13347;SDS011;6743;49.934;9.138;2023-04-08T10:25:37;3.10;;;2.50;;
13347;SDS011;6743;49.934;9.138;2023-04-08T10:30:50;2.53;;;2.20;;
13347;SDS011;6743;49.934;9.138;2023-04-08T10:33:17;2.60;;;2.40;;
13347;SDS011;6743;49.934;9.138;2023-04-08T10:35:46;2.67;;;2.47;;
13347;SDS011;6743;49.934;9.138;2023-04-08T10:38:13;3.40;;;2.70;;
13347;SDS011;6743;49.934;9.138;2023-04-08T10:40:40;2.00;;;1.90;;
13347;SDS011;6743;49.934;9.138;2023-04-08T10:43:07;2.67;;;1.67;;
13347;SDS011;6743;49.934;9.138;2023-04-08T10:45:34;3.97;;;2.67;;
13347;SDS011;6743;49.934;9.138;2023-04-08T10:48:10;2.30;;;2.10;;
13347;SDS011;6743;49.934;9.138;2023-04-08T10:50:40;2.87;;;2.57;;
13347;SDS011;6743;49.934;9.138;2023-04-08T10:53:06;2.90;;;2.70;;
13347;SDS011;6743;49.934;9.138;2023-04-08T10:55:32;3.20;;;2.53;;
13347;SDS011;6743;49.934;9.138;2023-04-08T10:58:04;3.17;;;2.20;;
13347;SDS011;6743;49.934;9.138;2023-04-08T11:00:31;4.13;;;2.47;;
13347;SDS011;6743;49.934;9.138;2023-04-08T11:02:59;2.43;;;2.23;;
13347;SDS011;6743;49.934;9.138;2023-04-08T11:05:25;2.73;;;2.47;;
13347;SDS011;6743;49.934;9.138;2023-04-08T11:07:51;2.73;;;2.10;;
13347;SDS011;6743;49.934;9.138;2023-04-08T11:10:18;2.33;;;2.13;;
13347;SDS011;6743;49.934;9.138;2023-04-08T11:12:45;2.27;;;2.07;;
13347;SDS011;6743;49.934;9.138;2023-04-08T11:15:11;2.53;;;2.33;;
13347;SDS011;6743;49.934;9.138;2023-04-08T11:17:38;4.10;;;2.40;;
13347;SDS011;6743;49.934;9.138;2023-04-08T11:20:05;2.37;;;2.17;;
13347;SDS011;6743;49.934;9.138;2023-04-08T11:22:33;4.47;;;2.90;;
13347;SDS011;6743;49.934;9.138;2023-04-08T11:25:00;2.33;;;2.13;;
13347;SDS011;6743;49.934;9.138;2023-04-08T11:27:27;2.40;;;2.10;;
13347;SDS011;6743;49.934;9.138;2023-04-08T11:29:53;2.87;;;2.67;;
13347;SDS011;6743;49.934;9.138;2023-04-08T11:32:20;2.60;;;2.10;;
13347;SDS011;6743;49.934;9.138;2023-04-08T11:34:47;3.77;;;2.50;;
13347;SDS011;6743;49.934;9.138;2023-04-08T11:37:14;3.27;;;2.53;;
13347;SDS011;6743;49.934;9.138;2023-04-08T11:39:41;2.23;;;2.03;;
13347;SDS011;6743;49.934;9.138;2023-04-08T11:42:08;3.00;;;2.60;;
13347;SDS011;6743;49.934;9.138;2023-04-08T11:44:34;2.30;;;2.10;;
13347;SDS011;6743;49.934;9.138;2023-04-08T11:47:00;3.70;;;2.80;;
13347;SDS011;6743;49.934;9.138;2023-04-08T11:49:27;3.35;;;2.30;;
13347;SDS011;6743;49.934;9.138;2023-04-08T11:52:07;2.80;;;2.10;;
13347;SDS011;6743;49.934;9.138;2023-04-08T11:54:39;3.00;;;2.60;;
13347;SDS011;6743;49.934;9.138;2023-04-08T11:57:06;3.20;;;2.90;;
13347;SDS011;6743;49.934;9.138;2023-04-08T11:59:33;2.90;;;2.57;;
13347;SDS011;6743;49.934;9.138;2023-04-08T12:02:00;2.78;;;2.58;;
13347;SDS011;6743;49.934;9.138;2023-04-08T12:04:26;2.50;;;2.30;;
13347;SDS011;6743;49.934;9.138;2023-04-08T12:06:52;2.97;;;2.77;;
13347;SDS011;6743;49.934;9.138;2023-04-08T12:09:18;3.17;;;2.65;;
13347;SDS011;6743;49.934;9.138;2023-04-08T12:11:45;2.78;;;2.50;;
13347;SDS011;6743;49.934;9.138;2023-04-08T12:14:11;3.08;;;2.70;;
13347;SDS011;6743;49.934;9.138;2023-04-08T12:16:37;2.65;;;2.40;;
13347;SDS011;6743;49.934;9.138;2023-04-08T12:19:03;2.45;;;2.20;;
13347;SDS011;6743;49.934;9.138;2023-04-08T12:21:29;2.62;;;2.42;;
13347;SDS011;6743;49.934;9.138;2023-04-08T12:23:56;3.05;;;2.80;;
13347;SDS011;6743;49.934;9.138;2023-04-08T12:26:22;3.95;;;2.50;;
13347;SDS011;6743;49.934;9.138;2023-04-08T12:28:49;4.05;;;2.70;;
13347;SDS011;6743;49.934;9.138;2023-04-08T12:31:15;2.85;;;2.28;;
13347;SDS011;6743;49.934;9.138;2023-04-08T12:33:41;2.15;;;1.98;;
13347;SDS011;6743;49.934;9.138;2023-04-08T12:36:07;2.78;;;1.98;;
13347;SDS011;6743;49.934;9.138;2023-04-08T12:38:33;2.30;;;2.10;;
13347;SDS011;6743;49.934;9.138;2023-04-08T12:40:59;2.60;;;2.20;;
13347;SDS011;6743;49.934;9.138;2023-04-08T12:43:25;2.28;;;2.00;;
13347;SDS011;6743;49.934;9.138;2023-04-08T12:45:51;2.35;;;2.15;;
13347;SDS011;6743;49.934;9.138;2023-04-08T12:48:17;2.90;;;2.00;;
13347;SDS011;6743;49.934;9.138;2023-04-08T12:50:43;2.30;;;2.10;;
13347;SDS011;6743;49.934;9.138;2023-04-08T12:53:09;4.35;;;2.25;;
13347;SDS011;6743;49.934;9.138;2023-04-08T12:55:35;1.90;;;1.80;;
13347;SDS011;6743;49.934;9.138;2023-04-08T12:58:01;3.50;;;2.30;;
13347;SDS011;6743;49.934;9.138;2023-04-08T13:00:27;1.87;;;1.77;;
13347;SDS011;6743;49.934;9.138;2023-04-08T13:02:54;2.62;;;2.15;;
13347;SDS011;6743;49.934;9.138;2023-04-08T13:05:20;1.98;;;1.87;;
13347;SDS011;6743;49.934;9.138;2023-04-08T13:07:46;1.85;;;1.70;;
13347;SDS011;6743;49.934;9.138;2023-04-08T13:10:12;1.92;;;1.75;;
13347;SDS011;6743;49.934;9.138;2023-04-08T13:12:38;1.85;;;1.73;;
13347;SDS011;6743;49.934;9.138;2023-04-08T13:15:05;2.12;;;1.83;;
13347;SDS011;6743;49.934;9.138;2023-04-08T13:17:32;1.87;;;1.70;;
13347;SDS011;6743;49.934;9.138;2023-04-08T13:19:58;2.12;;;1.98;;
13347;SDS011;6743;49.934;9.138;2023-04-08T13:22:25;1.98;;;1.77;;
13347;SDS011;6743;49.934;9.138;2023-04-08T13:24:51;2.60;;;1.95;;
13347;SDS011;6743;49.934;9.138;2023-04-08T13:27:17;2.00;;;1.90;;
13347;SDS011;6743;49.934;9.138;2023-04-08T13:29:43;2.35;;;1.77;;
13347;SDS011;6743;49.934;9.138;2023-04-08T13:32:08;1.92;;;1.83;;
13347;SDS011;6743;49.934;9.138;2023-04-08T13:34:35;1.83;;;1.73;;
13347;SDS011;6743;49.934;9.138;2023-04-08T13:37:01;2.53;;;2.30;;
13347;SDS011;6743;49.934;9.138;2023-04-08T13:39:28;3.50;;;2.78;;
13347;SDS011;6743;49.934;9.138;2023-04-08T13:41:54;3.03;;;2.58;;
13347;SDS011;6743;49.934;9.138;2023-04-08T13:44:21;2.50;;;2.30;;
13347;SDS011;6743;49.934;9.138;2023-04-08T13:46:47;3.37;;;2.80;;
13347;SDS011;6743;49.934;9.138;2023-04-08T13:49:13;2.30;;;2.20;;
13347;SDS011;6743;49.934;9.138;2023-04-08T13:51:40;2.50;;;2.30;;
13347;SDS011;6743;49.934;9.138;2023-04-08T13:54:06;2.28;;;2.08;;
13347;SDS011;6743;49.934;9.138;2023-04-08T13:56:32;2.45;;;2.10;;
13347;SDS011;6743;49.934;9.138;2023-04-08T13:58:58;2.40;;;2.20;;
13347;SDS011;6743;49.934;9.138;2023-04-08T14:01:24;3.00;;;2.70;;
13347;SDS011;6743;49.934;9.138;2023-04-08T14:03:50;4.22;;;2.72;;
13347;SDS011;6743;49.934;9.138;2023-04-08T14:06:16;2.53;;;2.17;;
13347;SDS011;6743;49.934;9.138;2023-04-08T14:08:42;2.78;;;2.45;;
13347;SDS011;6743;49.934;9.138;2023-04-08T14:11:09;3.03;;;2.72;;
13347;SDS011;6743;49.934;9.138;2023-04-08T14:13:35;2.50;;;2.30;;
13347;SDS011;6743;49.934;9.138;2023-04-08T14:16:01;2.37;;;2.10;;
13347;SDS011;6743;49.934;9.138;2023-04-08T14:18:27;3.20;;;2.35;;
13347;SDS011;6743;49.934;9.138;2023-04-08T14:20:53;2.35;;;1.92;;
13347;SDS011;6743;49.934;9.138;2023-04-08T14:23:20;2.00;;;1.90;;
13347;SDS011;6743;49.934;9.138;2023-04-08T14:25:46;2.22;;;2.03;;
13347;SDS011;6743;49.934;9.138;2023-04-08T14:28:12;2.33;;;2.22;;
13347;SDS011;6743;49.934;9.138;2023-04-08T14:30:38;2.22;;;2.05;;
13347;SDS011;6743;49.934;9.138;2023-04-08T14:33:04;2.50;;;2.17;;
13347;SDS011;6743;49.934;9.138;2023-04-08T14:35:30;1.98;;;1.87;;
13347;SDS011;6743;49.934;9.138;2023-04-08T14:37:56;2.15;;;1.95;;
13347;SDS011;6743;49.934;9.138;2023-04-08T14:40:22;2.15;;;1.95;;
13347;SDS011;6743;49.934;9.138;2023-04-08T14:42:48;1.73;;;1.62;;
13347;SDS011;6743;49.934;9.138;2023-04-08T14:45:15;2.37;;;1.95;;
13347;SDS011;6743;49.934;9.138;2023-04-08T14:47:41;3.03;;;2.08;;
13347;SDS011;6743;49.934;9.138;2023-04-08T14:50:08;1.75;;;1.65;;
13347;SDS011;6743;49.934;9.138;2023-04-08T14:52:34;3.10;;;2.10;;
13347;SDS011;6743;49.934;9.138;2023-04-08T14:55:00;2.40;;;1.75;;
13347;SDS011;6743;49.934;9.138;2023-04-08T14:57:26;2.28;;;1.87;;
13347;SDS011;6743;49.934;9.138;2023-04-08T14:59:53;2.15;;;1.95;;
13347;SDS011;6743;49.934;9.138;2023-04-08T15:02:19;2.10;;;1.90;;
13347;SDS011;6743;49.934;9.138;2023-04-08T15:04:45;1.92;;;1.83;;
13347;SDS011;6743;49.934;9.138;2023-04-08T15:07:11;1.50;;;1.40;;